sensor_id;sensor_type;location;lat;lon;timestamp;P1;durP1;ratioP1;P2;durP2;ratioP2
13208;SDS011;6669;42.678;23.332;2023-04-07T00:00:06;5.13;;;3.90;;
13208;SDS011;6669;42.678;23.332;2023-04-07T00:02:36;7.57;;;4.50;;
13208;SDS011;6669;42.678;23.332;2023-04-07T00:05:04;4.83;;;4.00;;
13208;SDS011;6669;42.678;23.332;2023-04-07T00:07:32;5.70;;;4.53;;
13208;SDS011;6669;42.678;23.332;2023-04-07T00:10:15;7.30;;;5.07;;
13208;SDS011;6669;42.678;23.332;2023-04-07T00:12:43;4.50;;;4.07;;
13208;SDS011;6669;42.678;23.332;2023-04-07T00:15:11;4.53;;;4.07;;
13208;SDS011;6669;42.678;23.332;2023-04-07T00:17:39;5.40;;;4.37;;
13208;SDS011;6669;42.678;23.332;2023-04-07T00:20:07;5.50;;;4.07;;
13208;SDS011;6669;42.678;23.332;2023-04-07T00:22:35;4.40;;;3.83;;
13208;SDS011;6669;42.678;23.332;2023-04-07T00:25:04;4.93;;;4.10;;
13208;SDS011;6669;42.678;23.332;2023-04-07T00:27:34;4.73;;;4.23;;
13208;SDS011;6669;42.678;23.332;2023-04-07T00:30:02;4.43;;;3.93;;
13208;SDS011;6669;42.678;23.332;2023-04-07T00:32:30;4.90;;;4.07;;
13208;SDS011;6669;42.678;23.332;2023-04-07T00:35:01;7.63;;;4.70;;
13208;SDS011;6669;42.678;23.332;2023-04-07T00:37:29;5.67;;;4.17;;
13208;SDS011;6669;42.678;23.332;2023-04-07T00:39:57;5.00;;;4.10;;
13208;SDS011;6669;42.678;23.332;2023-04-07T00:42:25;5.40;;;4.30;;
13208;SDS011;6669;42.678;23.332;2023-04-07T00:44:54;4.53;;;3.93;;
13208;SDS011;6669;42.678;23.332;2023-04-07T00:47:22;4.80;;;3.90;;
13208;SDS011;6669;42.678;23.332;2023-04-07T00:49:50;4.80;;;4.30;;
13208;SDS011;6669;42.678;23.332;2023-04-07T00:52:18;4.40;;;4.00;;
13208;SDS011;6669;42.678;23.332;2023-04-07T00:54:52;7.23;;;4.57;;
13208;SDS011;6669;42.678;23.332;2023-04-07T00:57:20;5.40;;;4.37;;
13208;SDS011;6669;42.678;23.332;2023-04-07T00:59:48;4.53;;;3.93;;
13208;SDS011;6669;42.678;23.332;2023-04-07T01:02:21;6.03;;;4.63;;
13208;SDS011;6669;42.678;23.332;2023-04-07T01:04:58;4.63;;;4.13;;
13208;SDS011;6669;42.678;23.332;2023-04-07T01:07:38;4.87;;;3.97;;
13208;SDS011;6669;42.678;23.332;2023-04-07T01:10:11;5.03;;;4.43;;
13208;SDS011;6669;42.678;23.332;2023-04-07T01:12:46;5.03;;;4.17;;
13208;SDS011;6669;42.678;23.332;2023-04-07T01:15:20;5.07;;;4.30;;
13208;SDS011;6669;42.678;23.332;2023-04-07T01:17:58;4.93;;;4.40;;
13208;SDS011;6669;42.678;23.332;2023-04-07T01:20:37;6.47;;;4.20;;
13208;SDS011;6669;42.678;23.332;2023-04-07T01:23:06;4.77;;;4.00;;
13208;SDS011;6669;42.678;23.332;2023-04-07T01:25:38;5.63;;;4.00;;
13208;SDS011;6669;42.678;23.332;2023-04-07T01:31:23;7.87;;;4.60;;
13208;SDS011;6669;42.678;23.332;2023-04-07T01:33:53;4.07;;;3.67;;
13208;SDS011;6669;42.678;23.332;2023-04-07T01:36:22;4.67;;;3.90;;
13208;SDS011;6669;42.678;23.332;2023-04-07T01:38:53;6.07;;;4.20;;
13208;SDS011;6669;42.678;23.332;2023-04-07T01:41:22;7.17;;;4.87;;
13208;SDS011;6669;42.678;23.332;2023-04-07T01:43:51;7.90;;;6.40;;
13208;SDS011;6669;42.678;23.332;2023-04-07T01:46:22;9.60;;;7.00;;
13208;SDS011;6669;42.678;23.332;2023-04-07T01:48:51;7.07;;;6.37;;
13208;SDS011;6669;42.678;23.332;2023-04-07T01:51:20;7.47;;;6.60;;
13208;SDS011;6669;42.678;23.332;2023-04-07T01:53:50;11.13;;;7.17;;
13208;SDS011;6669;42.678;23.332;2023-04-07T01:56:19;8.47;;;7.00;;
13208;SDS011;6669;42.678;23.332;2023-04-07T01:58:47;9.13;;;7.40;;
13208;SDS011;6669;42.678;23.332;2023-04-07T02:01:15;7.90;;;7.10;;
13208;SDS011;6669;42.678;23.332;2023-04-07T02:03:45;7.60;;;6.80;;
13208;SDS011;6669;42.678;23.332;2023-04-07T02:06:21;9.50;;;7.20;;
13208;SDS011;6669;42.678;23.332;2023-04-07T02:08:54;8.07;;;7.17;;
13208;SDS011;6669;42.678;23.332;2023-04-07T02:11:27;11.93;;;7.83;;
13208;SDS011;6669;42.678;23.332;2023-04-07T02:13:57;8.70;;;7.27;;
13208;SDS011;6669;42.678;23.332;2023-04-07T02:16:29;8.70;;;6.67;;
13208;SDS011;6669;42.678;23.332;2023-04-07T02:18:59;8.40;;;6.83;;
13208;SDS011;6669;42.678;23.332;2023-04-07T02:21:28;8.20;;;6.70;;
13208;SDS011;6669;42.678;23.332;2023-04-07T02:23:59;9.77;;;6.73;;
13208;SDS011;6669;42.678;23.332;2023-04-07T02:26:32;6.90;;;6.20;;
13208;SDS011;6669;42.678;23.332;2023-04-07T02:29:00;8.43;;;6.67;;
13208;SDS011;6669;42.678;23.332;2023-04-07T02:31:29;8.07;;;6.47;;
13208;SDS011;6669;42.678;23.332;2023-04-07T02:33:58;10.23;;;6.87;;
13208;SDS011;6669;42.678;23.332;2023-04-07T02:36:26;8.03;;;6.37;;
13208;SDS011;6669;42.678;23.332;2023-04-07T02:38:54;8.30;;;6.17;;
13208;SDS011;6669;42.678;23.332;2023-04-07T02:41:22;8.47;;;6.67;;
13208;SDS011;6669;42.678;23.332;2023-04-07T02:43:51;7.60;;;6.70;;
13208;SDS011;6669;42.678;23.332;2023-04-07T02:46:19;7.93;;;6.90;;
13208;SDS011;6669;42.678;23.332;2023-04-07T02:48:48;7.33;;;6.60;;
13208;SDS011;6669;42.678;23.332;2023-04-07T02:51:17;10.57;;;7.47;;
13208;SDS011;6669;42.678;23.332;2023-04-07T02:53:45;9.60;;;7.10;;
13208;SDS011;6669;42.678;23.332;2023-04-07T02:56:13;8.30;;;6.70;;
13208;SDS011;6669;42.678;23.332;2023-04-07T02:58:42;10.30;;;6.77;;
13208;SDS011;6669;42.678;23.332;2023-04-07T03:01:09;8.43;;;7.07;;
13208;SDS011;6669;42.678;23.332;2023-04-07T03:03:38;8.00;;;6.80;;
13208;SDS011;6669;42.678;23.332;2023-04-07T03:06:07;7.97;;;6.50;;
13208;SDS011;6669;42.678;23.332;2023-04-07T03:08:37;8.43;;;6.50;;
13208;SDS011;6669;42.678;23.332;2023-04-07T03:11:04;8.07;;;6.50;;
13208;SDS011;6669;42.678;23.332;2023-04-07T03:13:32;9.30;;;6.30;;
13208;SDS011;6669;42.678;23.332;2023-04-07T03:16:01;7.27;;;5.87;;
13208;SDS011;6669;42.678;23.332;2023-04-07T03:18:29;6.83;;;6.13;;
13208;SDS011;6669;42.678;23.332;2023-04-07T03:20:57;8.17;;;6.10;;
13208;SDS011;6669;42.678;23.332;2023-04-07T03:23:24;6.47;;;5.40;;
13208;SDS011;6669;42.678;23.332;2023-04-07T03:25:56;6.03;;;5.43;;
13208;SDS011;6669;42.678;23.332;2023-04-07T03:28:24;5.13;;;4.60;;
13208;SDS011;6669;42.678;23.332;2023-04-07T03:30:52;6.00;;;4.30;;
13208;SDS011;6669;42.678;23.332;2023-04-07T03:33:20;4.70;;;3.97;;
13208;SDS011;6669;42.678;23.332;2023-04-07T03:35:47;4.67;;;3.73;;
13208;SDS011;6669;42.678;23.332;2023-04-07T03:38:15;4.30;;;3.70;;
13208;SDS011;6669;42.678;23.332;2023-04-07T03:40:43;4.20;;;3.40;;
13208;SDS011;6669;42.678;23.332;2023-04-07T03:43:13;4.07;;;3.40;;
13208;SDS011;6669;42.678;23.332;2023-04-07T03:45:41;4.03;;;3.37;;
13208;SDS011;6669;42.678;23.332;2023-04-07T03:48:09;4.17;;;3.77;;
13208;SDS011;6669;42.678;23.332;2023-04-07T03:50:38;4.53;;;3.10;;
13208;SDS011;6669;42.678;23.332;2023-04-07T03:53:06;3.73;;;3.27;;
13208;SDS011;6669;42.678;23.332;2023-04-07T03:55:34;4.47;;;3.53;;
13208;SDS011;6669;42.678;23.332;2023-04-07T03:58:03;5.40;;;3.93;;
13208;SDS011;6669;42.678;23.332;2023-04-07T04:00:32;4.50;;;3.50;;
13208;SDS011;6669;42.678;23.332;2023-04-07T04:03:00;4.33;;;3.50;;
13208;SDS011;6669;42.678;23.332;2023-04-07T04:05:29;3.80;;;3.50;;
13208;SDS011;6669;42.678;23.332;2023-04-07T04:07:57;4.20;;;3.60;;
13208;SDS011;6669;42.678;23.332;2023-04-07T04:10:27;3.50;;;3.10;;
13208;SDS011;6669;42.678;23.332;2023-04-07T04:13:05;5.73;;;4.00;;
13208;SDS011;6669;42.678;23.332;2023-04-07T04:15:34;6.50;;;5.40;;
13208;SDS011;6669;42.678;23.332;2023-04-07T04:18:04;7.43;;;5.70;;
13208;SDS011;6669;42.678;23.332;2023-04-07T04:20:32;8.50;;;6.67;;
13208;SDS011;6669;42.678;23.332;2023-04-07T04:23:00;7.13;;;6.13;;
13208;SDS011;6669;42.678;23.332;2023-04-07T04:25:28;10.47;;;6.90;;
13208;SDS011;6669;42.678;23.332;2023-04-07T04:27:58;10.10;;;7.60;;
13208;SDS011;6669;42.678;23.332;2023-04-07T04:30:26;8.13;;;7.27;;
13208;SDS011;6669;42.678;23.332;2023-04-07T04:32:55;8.40;;;7.23;;
13208;SDS011;6669;42.678;23.332;2023-04-07T04:35:24;9.07;;;7.67;;
13208;SDS011;6669;42.678;23.332;2023-04-07T04:37:52;11.87;;;8.60;;
13208;SDS011;6669;42.678;23.332;2023-04-07T04:40:20;10.50;;;8.13;;
13208;SDS011;6669;42.678;23.332;2023-04-07T04:42:48;8.87;;;7.80;;
13208;SDS011;6669;42.678;23.332;2023-04-07T04:45:16;12.70;;;8.97;;
13208;SDS011;6669;42.678;23.332;2023-04-07T04:47:44;11.13;;;8.03;;
13208;SDS011;6669;42.678;23.332;2023-04-07T04:50:14;11.20;;;8.70;;
13208;SDS011;6669;42.678;23.332;2023-04-07T04:52:42;10.00;;;8.37;;
13208;SDS011;6669;42.678;23.332;2023-04-07T04:55:10;12.17;;;8.93;;
13208;SDS011;6669;42.678;23.332;2023-04-07T04:57:39;9.03;;;7.93;;
13208;SDS011;6669;42.678;23.332;2023-04-07T05:00:08;22.00;;;11.20;;
13208;SDS011;6669;42.678;23.332;2023-04-07T05:02:37;10.60;;;8.40;;
13208;SDS011;6669;42.678;23.332;2023-04-07T05:05:05;9.23;;;7.37;;
13208;SDS011;6669;42.678;23.332;2023-04-07T05:07:35;10.73;;;7.30;;
13208;SDS011;6669;42.678;23.332;2023-04-07T05:10:06;10.57;;;7.30;;
13208;SDS011;6669;42.678;23.332;2023-04-07T05:12:34;12.57;;;7.30;;
13208;SDS011;6669;42.678;23.332;2023-04-07T05:15:03;9.10;;;7.03;;
13208;SDS011;6669;42.678;23.332;2023-04-07T05:17:32;9.77;;;7.43;;
13208;SDS011;6669;42.678;23.332;2023-04-07T05:20:00;9.23;;;7.10;;
13208;SDS011;6669;42.678;23.332;2023-04-07T05:22:28;9.80;;;7.67;;
13208;SDS011;6669;42.678;23.332;2023-04-07T05:24:58;9.97;;;7.07;;
13208;SDS011;6669;42.678;23.332;2023-04-07T05:27:26;10.00;;;7.30;;
13208;SDS011;6669;42.678;23.332;2023-04-07T05:29:54;7.93;;;6.63;;
13208;SDS011;6669;42.678;23.332;2023-04-07T05:32:22;10.47;;;7.57;;
13208;SDS011;6669;42.678;23.332;2023-04-07T05:34:50;9.73;;;6.87;;
13208;SDS011;6669;42.678;23.332;2023-04-07T05:37:18;9.53;;;6.93;;
13208;SDS011;6669;42.678;23.332;2023-04-07T05:39:46;9.93;;;6.60;;
13208;SDS011;6669;42.678;23.332;2023-04-07T05:42:15;11.13;;;7.00;;
13208;SDS011;6669;42.678;23.332;2023-04-07T05:44:43;9.23;;;6.50;;
13208;SDS011;6669;42.678;23.332;2023-04-07T05:47:11;8.53;;;6.10;;
13208;SDS011;6669;42.678;23.332;2023-04-07T05:49:38;5.97;;;5.37;;
13208;SDS011;6669;42.678;23.332;2023-04-07T05:52:11;7.73;;;6.40;;
13208;SDS011;6669;42.678;23.332;2023-04-07T05:54:39;7.00;;;6.30;;
13208;SDS011;6669;42.678;23.332;2023-04-07T05:57:10;10.03;;;6.47;;
13208;SDS011;6669;42.678;23.332;2023-04-07T05:59:40;9.17;;;7.20;;
13208;SDS011;6669;42.678;23.332;2023-04-07T06:02:07;7.93;;;6.67;;
13208;SDS011;6669;42.678;23.332;2023-04-07T06:04:36;12.97;;;7.30;;
13208;SDS011;6669;42.678;23.332;2023-04-07T06:07:04;9.23;;;7.00;;
13208;SDS011;6669;42.678;23.332;2023-04-07T06:09:33;10.30;;;7.43;;
13208;SDS011;6669;42.678;23.332;2023-04-07T06:12:01;9.37;;;7.90;;
13208;SDS011;6669;42.678;23.332;2023-04-07T06:14:30;8.40;;;7.20;;
13208;SDS011;6669;42.678;23.332;2023-04-07T06:16:59;12.30;;;8.03;;
13208;SDS011;6669;42.678;23.332;2023-04-07T06:19:27;12.13;;;7.30;;
13208;SDS011;6669;42.678;23.332;2023-04-07T06:21:55;8.50;;;6.97;;
13208;SDS011;6669;42.678;23.332;2023-04-07T06:24:23;12.17;;;7.97;;
13208;SDS011;6669;42.678;23.332;2023-04-07T06:26:51;14.03;;;10.50;;
13208;SDS011;6669;42.678;23.332;2023-04-07T06:29:19;19.33;;;14.70;;
13208;SDS011;6669;42.678;23.332;2023-04-07T06:31:47;15.57;;;12.50;;
13208;SDS011;6669;42.678;23.332;2023-04-07T06:34:17;11.50;;;9.37;;
13208;SDS011;6669;42.678;23.332;2023-04-07T06:36:45;12.60;;;9.03;;
13208;SDS011;6669;42.678;23.332;2023-04-07T06:39:13;9.93;;;7.90;;
13208;SDS011;6669;42.678;23.332;2023-04-07T06:41:41;9.20;;;8.23;;
13208;SDS011;6669;42.678;23.332;2023-04-07T06:44:09;9.80;;;6.83;;
13208;SDS011;6669;42.678;23.332;2023-04-07T06:46:37;8.93;;;6.70;;
13208;SDS011;6669;42.678;23.332;2023-04-07T06:49:07;8.93;;;6.47;;
13208;SDS011;6669;42.678;23.332;2023-04-07T06:51:36;10.47;;;7.00;;
13208;SDS011;6669;42.678;23.332;2023-04-07T06:54:04;10.17;;;7.00;;
13208;SDS011;6669;42.678;23.332;2023-04-07T06:56:38;9.97;;;6.83;;
13208;SDS011;6669;42.678;23.332;2023-04-07T06:59:06;8.63;;;7.30;;
13208;SDS011;6669;42.678;23.332;2023-04-07T07:01:34;11.77;;;7.23;;
13208;SDS011;6669;42.678;23.332;2023-04-07T07:04:03;8.73;;;7.00;;
13208;SDS011;6669;42.678;23.332;2023-04-07T07:06:32;9.13;;;6.77;;
13208;SDS011;6669;42.678;23.332;2023-04-07T07:09:01;8.70;;;6.43;;
13208;SDS011;6669;42.678;23.332;2023-04-07T07:11:29;7.13;;;5.50;;
13208;SDS011;6669;42.678;23.332;2023-04-07T07:13:57;4.60;;;4.03;;
13208;SDS011;6669;42.678;23.332;2023-04-07T07:16:25;26.43;;;12.53;;
13208;SDS011;6669;42.678;23.332;2023-04-07T07:18:54;4.43;;;3.67;;
13208;SDS011;6669;42.678;23.332;2023-04-07T07:21:22;4.20;;;2.70;;
13208;SDS011;6669;42.678;23.332;2023-04-07T07:23:50;15.03;;;8.37;;
13208;SDS011;6669;42.678;23.332;2023-04-07T07:26:19;7.03;;;4.30;;
13208;SDS011;6669;42.678;23.332;2023-04-07T07:28:47;4.73;;;3.33;;
13208;SDS011;6669;42.678;23.332;2023-04-07T07:31:15;3.73;;;3.33;;
13208;SDS011;6669;42.678;23.332;2023-04-07T07:33:44;4.80;;;3.60;;
13208;SDS011;6669;42.678;23.332;2023-04-07T07:36:14;5.80;;;3.80;;
13208;SDS011;6669;42.678;23.332;2023-04-07T07:38:42;5.43;;;4.17;;
13208;SDS011;6669;42.678;23.332;2023-04-07T07:41:10;7.47;;;3.90;;
13208;SDS011;6669;42.678;23.332;2023-04-07T07:43:40;4.93;;;3.20;;
13208;SDS011;6669;42.678;23.332;2023-04-07T07:46:08;4.87;;;3.47;;
13208;SDS011;6669;42.678;23.332;2023-04-07T07:48:36;4.60;;;3.77;;
13208;SDS011;6669;42.678;23.332;2023-04-07T07:51:07;3.33;;;2.80;;
13208;SDS011;6669;42.678;23.332;2023-04-07T07:53:41;3.53;;;3.10;;
13208;SDS011;6669;42.678;23.332;2023-04-07T07:56:08;5.77;;;4.03;;
13208;SDS011;6669;42.678;23.332;2023-04-07T07:58:37;4.03;;;3.50;;
13208;SDS011;6669;42.678;23.332;2023-04-07T08:01:06;3.40;;;3.10;;
13208;SDS011;6669;42.678;23.332;2023-04-07T08:03:34;4.07;;;3.07;;
13208;SDS011;6669;42.678;23.332;2023-04-07T08:06:02;5.93;;;3.37;;
13208;SDS011;6669;42.678;23.332;2023-04-07T08:08:31;6.47;;;3.80;;
13208;SDS011;6669;42.678;23.332;2023-04-07T08:11:01;3.30;;;2.97;;
13208;SDS011;6669;42.678;23.332;2023-04-07T08:13:29;4.40;;;3.70;;
13208;SDS011;6669;42.678;23.332;2023-04-07T08:15:57;4.83;;;2.80;;
13208;SDS011;6669;42.678;23.332;2023-04-07T08:18:26;3.77;;;3.40;;
13208;SDS011;6669;42.678;23.332;2023-04-07T08:20:54;2.60;;;2.40;;
13208;SDS011;6669;42.678;23.332;2023-04-07T08:23:22;8.07;;;5.87;;
13208;SDS011;6669;42.678;23.332;2023-04-07T08:25:51;3.33;;;3.03;;
13208;SDS011;6669;42.678;23.332;2023-04-07T08:28:19;10.97;;;5.60;;
13208;SDS011;6669;42.678;23.332;2023-04-07T08:30:48;5.10;;;3.70;;
13208;SDS011;6669;42.678;23.332;2023-04-07T08:33:16;4.50;;;4.00;;
13208;SDS011;6669;42.678;23.332;2023-04-07T08:35:45;6.03;;;3.87;;
13208;SDS011;6669;42.678;23.332;2023-04-07T08:38:14;6.73;;;4.87;;
13208;SDS011;6669;42.678;23.332;2023-04-07T08:40:41;5.47;;;3.87;;
13208;SDS011;6669;42.678;23.332;2023-04-07T08:43:09;3.47;;;2.90;;
13208;SDS011;6669;42.678;23.332;2023-04-07T08:45:41;3.07;;;2.77;;
13208;SDS011;6669;42.678;23.332;2023-04-07T08:48:13;2.93;;;2.60;;
13208;SDS011;6669;42.678;23.332;2023-04-07T08:50:46;4.27;;;3.57;;
13208;SDS011;6669;42.678;23.332;2023-04-07T08:53:20;3.50;;;2.87;;
13208;SDS011;6669;42.678;23.332;2023-04-07T08:55:51;2.93;;;2.70;;
13208;SDS011;6669;42.678;23.332;2023-04-07T08:58:19;4.43;;;3.00;;
13208;SDS011;6669;42.678;23.332;2023-04-07T09:00:49;5.77;;;3.90;;
13208;SDS011;6669;42.678;23.332;2023-04-07T09:03:18;3.53;;;2.60;;
13208;SDS011;6669;42.678;23.332;2023-04-07T09:05:47;4.80;;;2.90;;
13208;SDS011;6669;42.678;23.332;2023-04-07T09:08:16;3.37;;;3.07;;
13208;SDS011;6669;42.678;23.332;2023-04-07T09:10:44;3.57;;;2.90;;
13208;SDS011;6669;42.678;23.332;2023-04-07T09:13:12;8.33;;;5.23;;
13208;SDS011;6669;42.678;23.332;2023-04-07T09:15:41;4.53;;;3.43;;
13208;SDS011;6669;42.678;23.332;2023-04-07T09:18:08;4.23;;;3.60;;
13208;SDS011;6669;42.678;23.332;2023-04-07T09:20:58;4.63;;;3.50;;
13208;SDS011;6669;42.678;23.332;2023-04-07T09:23:28;7.30;;;5.40;;
13208;SDS011;6669;42.678;23.332;2023-04-07T09:25:58;5.33;;;4.37;;
13208;SDS011;6669;42.678;23.332;2023-04-07T09:28:42;4.93;;;3.73;;
13208;SDS011;6669;42.678;23.332;2023-04-07T09:31:11;4.13;;;3.73;;
13208;SDS011;6669;42.678;23.332;2023-04-07T09:33:39;4.23;;;3.63;;
13208;SDS011;6669;42.678;23.332;2023-04-07T09:36:08;5.27;;;3.47;;
13208;SDS011;6669;42.678;23.332;2023-04-07T09:38:37;9.30;;;6.00;;
13208;SDS011;6669;42.678;23.332;2023-04-07T09:41:07;4.90;;;4.00;;
13208;SDS011;6669;42.678;23.332;2023-04-07T09:43:37;6.00;;;5.37;;
13208;SDS011;6669;42.678;23.332;2023-04-07T09:46:10;3.70;;;3.40;;
13208;SDS011;6669;42.678;23.332;2023-04-07T09:48:43;4.13;;;3.53;;
13208;SDS011;6669;42.678;23.332;2023-04-07T09:51:14;4.23;;;3.73;;
13208;SDS011;6669;42.678;23.332;2023-04-07T09:53:44;4.77;;;3.77;;
13208;SDS011;6669;42.678;23.332;2023-04-07T09:56:14;6.03;;;4.33;;
13208;SDS011;6669;42.678;23.332;2023-04-07T09:58:44;4.80;;;3.60;;
13208;SDS011;6669;42.678;23.332;2023-04-07T10:01:13;3.73;;;3.37;;
13208;SDS011;6669;42.678;23.332;2023-04-07T10:03:44;4.60;;;3.63;;
13208;SDS011;6669;42.678;23.332;2023-04-07T10:06:15;4.03;;;3.63;;
13208;SDS011;6669;42.678;23.332;2023-04-07T10:08:43;4.37;;;3.47;;
13208;SDS011;6669;42.678;23.332;2023-04-07T10:11:11;4.87;;;3.60;;
13208;SDS011;6669;42.678;23.332;2023-04-07T10:13:39;4.87;;;3.70;;
13208;SDS011;6669;42.678;23.332;2023-04-07T10:16:08;4.13;;;3.70;;
13208;SDS011;6669;42.678;23.332;2023-04-07T10:18:36;4.37;;;3.63;;
13208;SDS011;6669;42.678;23.332;2023-04-07T10:21:06;3.70;;;3.40;;
13208;SDS011;6669;42.678;23.332;2023-04-07T10:23:39;3.80;;;3.40;;
13208;SDS011;6669;42.678;23.332;2023-04-07T10:26:15;5.37;;;3.73;;
13208;SDS011;6669;42.678;23.332;2023-04-07T10:28:48;4.27;;;3.70;;
13208;SDS011;6669;42.678;23.332;2023-04-07T10:31:20;3.73;;;3.33;;
13208;SDS011;6669;42.678;23.332;2023-04-07T10:33:50;3.60;;;3.30;;
13208;SDS011;6669;42.678;23.332;2023-04-07T10:36:19;5.03;;;3.90;;
13208;SDS011;6669;42.678;23.332;2023-04-07T10:41:54;5.77;;;3.80;;
13208;SDS011;6669;42.678;23.332;2023-04-07T10:47:13;4.67;;;4.00;;
13208;SDS011;6669;42.678;23.332;2023-04-07T10:53:03;4.00;;;3.40;;
13208;SDS011;6669;42.678;23.332;2023-04-07T10:55:34;6.03;;;4.00;;
13208;SDS011;6669;42.678;23.332;2023-04-07T10:58:14;4.43;;;3.57;;
13208;SDS011;6669;42.678;23.332;2023-04-07T11:03:57;4.90;;;4.07;;
13208;SDS011;6669;42.678;23.332;2023-04-07T11:06:26;4.30;;;3.87;;
13208;SDS011;6669;42.678;23.332;2023-04-07T11:08:54;4.17;;;3.77;;
13208;SDS011;6669;42.678;23.332;2023-04-07T11:11:35;4.83;;;4.37;;
13208;SDS011;6669;42.678;23.332;2023-04-07T11:14:06;4.20;;;3.80;;
13208;SDS011;6669;42.678;23.332;2023-04-07T11:16:44;4.20;;;3.80;;
13208;SDS011;6669;42.678;23.332;2023-04-07T11:19:12;5.70;;;4.13;;
13208;SDS011;6669;42.678;23.332;2023-04-07T11:21:40;6.57;;;4.77;;
13208;SDS011;6669;42.678;23.332;2023-04-07T11:24:08;5.30;;;4.00;;
13208;SDS011;6669;42.678;23.332;2023-04-07T11:26:36;6.30;;;4.83;;
13208;SDS011;6669;42.678;23.332;2023-04-07T11:29:07;5.13;;;4.10;;
13208;SDS011;6669;42.678;23.332;2023-04-07T11:31:35;4.83;;;3.93;;
13208;SDS011;6669;42.678;23.332;2023-04-07T11:34:05;6.53;;;4.20;;
13208;SDS011;6669;42.678;23.332;2023-04-07T11:36:36;15.60;;;10.57;;
13208;SDS011;6669;42.678;23.332;2023-04-07T11:39:08;6.80;;;3.97;;
13208;SDS011;6669;42.678;23.332;2023-04-07T11:41:45;5.70;;;4.07;;
13208;SDS011;6669;42.678;23.332;2023-04-07T11:44:15;4.47;;;4.00;;
13208;SDS011;6669;42.678;23.332;2023-04-07T11:46:53;4.77;;;4.10;;
13208;SDS011;6669;42.678;23.332;2023-04-07T11:49:22;4.40;;;4.00;;
13208;SDS011;6669;42.678;23.332;2023-04-07T11:51:56;4.30;;;3.90;;
13208;SDS011;6669;42.678;23.332;2023-04-07T11:54:25;4.90;;;4.40;;
13208;SDS011;6669;42.678;23.332;2023-04-07T11:56:53;5.43;;;4.77;;
13208;SDS011;6669;42.678;23.332;2023-04-07T11:59:24;4.70;;;4.30;;
13208;SDS011;6669;42.678;23.332;2023-04-07T12:01:52;5.33;;;4.33;;
13208;SDS011;6669;42.678;23.332;2023-04-07T12:04:23;5.60;;;5.00;;
13208;SDS011;6669;42.678;23.332;2023-04-07T12:06:51;4.70;;;4.20;;
13208;SDS011;6669;42.678;23.332;2023-04-07T12:09:26;4.60;;;4.20;;
13208;SDS011;6669;42.678;23.332;2023-04-07T12:11:55;5.35;;;4.85;;
13208;SDS011;6669;42.678;23.332;2023-04-07T12:14:25;4.43;;;4.03;;
13208;SDS011;6669;42.678;23.332;2023-04-07T12:16:55;5.65;;;5.10;;
13208;SDS011;6669;42.678;23.332;2023-04-07T12:19:24;4.97;;;4.38;;
13208;SDS011;6669;42.678;23.332;2023-04-07T12:21:53;4.82;;;4.20;;
13208;SDS011;6669;42.678;23.332;2023-04-07T12:24:21;4.90;;;4.43;;
13208;SDS011;6669;42.678;23.332;2023-04-07T12:26:49;6.88;;;6.03;;
13208;SDS011;6669;42.678;23.332;2023-04-07T12:29:17;5.28;;;4.78;;
13208;SDS011;6669;42.678;23.332;2023-04-07T12:31:47;4.18;;;3.47;;
13208;SDS011;6669;42.678;23.332;2023-04-07T12:34:16;4.83;;;4.33;;
13208;SDS011;6669;42.678;23.332;2023-04-07T12:36:45;4.47;;;4.07;;
13208;SDS011;6669;42.678;23.332;2023-04-07T12:39:13;7.18;;;4.45;;
13208;SDS011;6669;42.678;23.332;2023-04-07T12:41:42;5.07;;;4.30;;
13208;SDS011;6669;42.678;23.332;2023-04-07T12:44:11;4.90;;;4.35;;
13208;SDS011;6669;42.678;23.332;2023-04-07T12:46:39;5.07;;;4.30;;
13208;SDS011;6669;42.678;23.332;2023-04-07T12:49:09;4.65;;;4.25;;
13208;SDS011;6669;42.678;23.332;2023-04-07T12:51:37;5.03;;;4.43;;
13208;SDS011;6669;42.678;23.332;2023-04-07T12:54:05;5.10;;;4.40;;
13208;SDS011;6669;42.678;23.332;2023-04-07T12:56:33;6.47;;;4.83;;
13208;SDS011;6669;42.678;23.332;2023-04-07T12:59:02;4.67;;;4.27;;
13208;SDS011;6669;42.678;23.332;2023-04-07T13:01:30;5.77;;;4.73;;
13208;SDS011;6669;42.678;23.332;2023-04-07T13:04:00;4.87;;;4.40;;
13208;SDS011;6669;42.678;23.332;2023-04-07T13:06:30;4.77;;;4.10;;
13208;SDS011;6669;42.678;23.332;2023-04-07T13:08:58;6.93;;;5.70;;
13208;SDS011;6669;42.678;23.332;2023-04-07T13:11:26;6.40;;;5.43;;
13208;SDS011;6669;42.678;23.332;2023-04-07T13:13:54;5.10;;;4.60;;
13208;SDS011;6669;42.678;23.332;2023-04-07T13:16:25;5.70;;;5.10;;
13208;SDS011;6669;42.678;23.332;2023-04-07T13:18:53;4.73;;;4.23;;
13208;SDS011;6669;42.678;23.332;2023-04-07T13:21:22;4.70;;;4.30;;
13208;SDS011;6669;42.678;23.332;2023-04-07T13:23:54;5.33;;;4.83;;
13208;SDS011;6669;42.678;23.332;2023-04-07T13:26:22;12.00;;;8.13;;
13208;SDS011;6669;42.678;23.332;2023-04-07T13:28:51;6.97;;;4.87;;
13208;SDS011;6669;42.678;23.332;2023-04-07T13:31:19;5.20;;;4.70;;
13208;SDS011;6669;42.678;23.332;2023-04-07T13:33:49;5.40;;;4.90;;
13208;SDS011;6669;42.678;23.332;2023-04-07T13:36:17;5.60;;;4.40;;
13208;SDS011;6669;42.678;23.332;2023-04-07T13:38:48;6.20;;;5.13;;
13208;SDS011;6669;42.678;23.332;2023-04-07T13:41:17;4.37;;;3.93;;
13208;SDS011;6669;42.678;23.332;2023-04-07T13:43:46;5.67;;;4.30;;
13208;SDS011;6669;42.678;23.332;2023-04-07T13:46:15;4.97;;;4.07;;
13208;SDS011;6669;42.678;23.332;2023-04-07T13:48:54;4.60;;;4.13;;
13208;SDS011;6669;42.678;23.332;2023-04-07T13:51:22;3.77;;;3.43;;
13208;SDS011;6669;42.678;23.332;2023-04-07T13:53:50;6.53;;;5.20;;
13208;SDS011;6669;42.678;23.332;2023-04-07T13:56:19;4.33;;;3.93;;
13208;SDS011;6669;42.678;23.332;2023-04-07T13:58:49;4.80;;;4.20;;
13208;SDS011;6669;42.678;23.332;2023-04-07T14:01:17;4.93;;;4.10;;
13208;SDS011;6669;42.678;23.332;2023-04-07T14:03:45;4.40;;;3.73;;
13208;SDS011;6669;42.678;23.332;2023-04-07T14:06:14;5.47;;;4.70;;
13208;SDS011;6669;42.678;23.332;2023-04-07T14:08:41;5.33;;;4.63;;
13208;SDS011;6669;42.678;23.332;2023-04-07T14:11:09;5.37;;;4.43;;
13208;SDS011;6669;42.678;23.332;2023-04-07T14:13:39;5.30;;;4.70;;
13208;SDS011;6669;42.678;23.332;2023-04-07T14:16:07;5.17;;;4.67;;
13208;SDS011;6669;42.678;23.332;2023-04-07T14:18:38;4.90;;;4.10;;
13208;SDS011;6669;42.678;23.332;2023-04-07T14:21:06;5.20;;;4.30;;
13208;SDS011;6669;42.678;23.332;2023-04-07T14:23:33;4.80;;;4.30;;
13208;SDS011;6669;42.678;23.332;2023-04-07T14:26:16;6.83;;;4.80;;
13208;SDS011;6669;42.678;23.332;2023-04-07T14:28:45;6.10;;;4.40;;
13208;SDS011;6669;42.678;23.332;2023-04-07T14:31:14;4.27;;;3.87;;
13208;SDS011;6669;42.678;23.332;2023-04-07T14:33:43;4.70;;;4.27;;
13208;SDS011;6669;42.678;23.332;2023-04-07T14:36:13;4.47;;;4.07;;
13208;SDS011;6669;42.678;23.332;2023-04-07T14:38:41;5.47;;;4.97;;
13208;SDS011;6669;42.678;23.332;2023-04-07T14:41:09;5.63;;;5.00;;
13208;SDS011;6669;42.678;23.332;2023-04-07T14:43:38;5.43;;;4.70;;
13208;SDS011;6669;42.678;23.332;2023-04-07T14:46:07;5.27;;;4.77;;
13208;SDS011;6669;42.678;23.332;2023-04-07T14:48:37;9.77;;;7.43;;
13208;SDS011;6669;42.678;23.332;2023-04-07T14:51:09;5.43;;;4.80;;
13208;SDS011;6669;42.678;23.332;2023-04-07T14:53:38;6.90;;;4.97;;
13208;SDS011;6669;42.678;23.332;2023-04-07T14:56:07;6.03;;;5.47;;
13208;SDS011;6669;42.678;23.332;2023-04-07T14:58:35;5.70;;;5.10;;
13208;SDS011;6669;42.678;23.332;2023-04-07T15:01:04;6.50;;;5.80;;
13208;SDS011;6669;42.678;23.332;2023-04-07T15:03:34;5.93;;;5.33;;
13208;SDS011;6669;42.678;23.332;2023-04-07T15:06:05;6.07;;;5.47;;
13208;SDS011;6669;42.678;23.332;2023-04-07T15:08:34;6.27;;;5.07;;
13208;SDS011;6669;42.678;23.332;2023-04-07T15:11:03;5.80;;;5.20;;
13208;SDS011;6669;42.678;23.332;2023-04-07T15:13:32;5.63;;;4.60;;